createdAt,value
2023-11-04T00:00:10.056Z,72.58
2023-11-04T00:02:46.796Z,72.46
2023-11-04T00:05:23.160Z,72.41
2023-11-04T00:08:00.125Z,72.35
2023-11-04T00:10:36.475Z,72.31
2023-11-04T00:13:12.960Z,72.25
2023-11-04T00:15:49.494Z,72.30
2023-11-04T00:18:26.188Z,72.27
2023-11-04T00:21:05.058Z,72.20
2023-11-04T00:23:41.362Z,72.24
2023-11-04T00:26:17.681Z,72.32
2023-11-04T00:28:55.048Z,72.23
2023-11-04T00:31:31.417Z,72.15
2023-11-04T00:34:08.232Z,72.14
2023-11-04T00:36:44.797Z,72.11
2023-11-04T00:39:21.813Z,72.15
2023-11-04T00:41:58.216Z,72.10
2023-11-04T00:44:34.598Z,71.91
2023-11-04T00:47:11.417Z,71.92
2023-11-04T00:49:47.826Z,71.92
2023-11-04T00:52:24.537Z,71.78
2023-11-04T00:55:00.818Z,71.61
2023-11-04T00:57:39.442Z,71.50
2023-11-04T01:00:25.107Z,71.57
2023-11-04T01:03:01.897Z,71.61
2023-11-04T01:05:38.849Z,71.58
2023-11-04T01:08:15.452Z,71.52
2023-11-04T01:10:52.122Z,71.58
2023-11-04T01:13:28.913Z,71.58
2023-11-04T01:16:06.049Z,71.58
2023-11-04T01:18:42.645Z,71.62
2023-11-04T01:21:18.977Z,71.60
2023-11-04T01:23:55.968Z,71.68
2023-11-04T01:26:32.255Z,71.56
2023-11-04T01:29:11.763Z,71.50
2023-11-04T01:31:49.536Z,71.50
2023-11-04T01:34:26.244Z,71.43
2023-11-04T01:37:03.291Z,71.40
2023-11-04T01:39:41.456Z,71.40
2023-11-04T01:42:17.919Z,71.38
2023-11-04T01:44:54.379Z,71.40
2023-11-04T01:47:31.250Z,71.41
2023-11-04T01:50:10.176Z,71.48
2023-11-04T01:52:49.660Z,71.42
2023-11-04T01:55:26.779Z,71.57
2023-11-04T01:58:03.483Z,71.61
2023-11-04T02:00:40.142Z,71.71
2023-11-04T02:03:18.679Z,71.82
2023-11-04T02:05:55.982Z,71.90
2023-11-04T02:08:32.322Z,72.02
2023-11-04T02:11:10.254Z,72.15
2023-11-04T02:13:46.518Z,72.22
2023-11-04T02:16:22.970Z,72.25
2023-11-04T02:18:59.490Z,72.31
2023-11-04T02:21:36.129Z,72.33
2023-11-04T02:24:19.675Z,72.24
2023-11-04T02:26:56.073Z,72.28
2023-11-04T02:29:32.771Z,72.14
2023-11-04T02:32:10.381Z,72.03
2023-11-04T02:34:47.020Z,71.99
2023-11-04T02:37:23.510Z,71.90
2023-11-04T02:39:59.980Z,71.87
2023-11-04T02:42:36.700Z,71.86
2023-11-04T02:45:16.230Z,71.89
2023-11-04T02:47:52.832Z,71.90
2023-11-04T02:50:29.445Z,71.99
2023-11-04T02:53:05.884Z,72.04
2023-11-04T02:55:42.171Z,72.11
2023-11-04T02:58:18.813Z,72.10
2023-11-04T03:00:55.323Z,72.14
2023-11-04T03:03:32.167Z,72.14
2023-11-04T03:06:09.310Z,72.12
2023-11-04T03:08:45.672Z,72.10
2023-11-04T03:11:23.942Z,72.12
2023-11-04T03:14:00.345Z,72.14
2023-11-04T03:16:39.006Z,72.10
2023-11-04T03:19:18.088Z,72.09
2023-11-04T03:21:55.063Z,72.06
2023-11-04T03:24:31.711Z,72.16
2023-11-04T03:27:08.580Z,72.19
2023-11-04T03:29:45.054Z,72.26
2023-11-04T03:32:22.146Z,72.46
2023-11-04T03:34:59.049Z,72.93
2023-11-04T03:37:36.206Z,73.06
2023-11-04T03:40:17.476Z,73.33
2023-11-04T03:42:54.137Z,73.43
2023-11-04T03:45:30.537Z,73.43
2023-11-04T03:48:07.515Z,73.52
2023-11-04T03:50:44.283Z,73.55
2023-11-04T03:53:20.568Z,73.60
2023-11-04T03:55:57.011Z,73.60
2023-11-04T03:58:33.594Z,73.62
2023-11-04T04:01:11.058Z,73.84
2023-11-04T04:03:47.819Z,74.06
2023-11-04T04:06:24.435Z,74.21
2023-11-04T04:09:00.959Z,74.21
2023-11-04T04:11:37.365Z,74.30
2023-11-04T04:14:13.826Z,74.43
2023-11-04T04:16:52.216Z,74.65
2023-11-04T04:19:28.743Z,74.62
2023-11-04T04:22:05.277Z,74.62
2023-11-04T04:24:43.258Z,74.76
2023-11-04T04:27:19.749Z,74.93
2023-11-04T04:29:56.070Z,74.95
2023-11-04T04:32:32.711Z,75.07
2023-11-04T04:35:12.219Z,75.22
2023-11-04T04:37:48.566Z,75.40
2023-11-04T04:40:25.433Z,75.56
2023-11-04T04:43:05.206Z,75.72
2023-11-04T04:45:41.601Z,75.69
2023-11-04T04:48:18.065Z,75.80
2023-11-04T04:50:54.514Z,75.73
2023-11-04T04:53:31.327Z,75.48
2023-11-04T04:56:09.853Z,75.19
2023-11-04T04:58:47.505Z,75.25
2023-11-04T05:01:26.107Z,75.68
2023-11-04T05:04:03.234Z,75.81
2023-11-04T05:06:39.903Z,75.70
2023-11-04T05:09:16.234Z,75.83
2023-11-04T05:11:54.007Z,75.81
2023-11-04T05:14:30.477Z,75.83
2023-11-04T05:17:07.096Z,75.71
2023-11-04T05:19:43.651Z,75.31
2023-11-04T05:22:20.064Z,75.16
2023-11-04T05:24:56.391Z,74.92
2023-11-04T05:27:33.097Z,74.55
2023-11-04T05:30:11.735Z,74.23
2023-11-04T05:32:48.323Z,73.85
2023-11-04T05:35:24.810Z,73.68
2023-11-04T05:38:01.170Z,73.30
2023-11-04T05:40:38.337Z,73.27
2023-11-04T05:43:14.928Z,72.89
2023-11-04T05:45:51.762Z,72.71
2023-11-04T05:48:28.290Z,72.35
2023-11-04T05:51:05.432Z,72.23
2023-11-04T05:53:41.834Z,72.14
2023-11-04T05:56:22.461Z,71.82
2023-11-04T05:58:59.325Z,71.65
2023-11-04T06:01:35.654Z,71.46
2023-11-04T06:04:12.743Z,71.34
2023-11-04T06:06:49.885Z,71.15
2023-11-04T06:09:26.925Z,70.95
2023-11-04T06:12:04.565Z,70.88
2023-11-04T06:14:40.948Z,70.67
2023-11-04T06:17:18.860Z,70.45
2023-11-04T06:19:55.907Z,70.11
2023-11-04T06:22:33.926Z,69.72
2023-11-04T06:25:13.079Z,69.56
2023-11-04T06:27:49.923Z,69.08
2023-11-04T06:30:26.403Z,68.77
2023-11-04T06:33:03.290Z,68.62
2023-11-04T06:35:39.585Z,68.38
2023-11-04T06:38:16.515Z,68.07
2023-11-04T06:40:53.235Z,67.73
2023-11-04T06:43:30.636Z,67.47
2023-11-04T06:46:11.831Z,67.11
2023-11-04T06:48:48.610Z,67.10
2023-11-04T06:51:26.594Z,66.70
2023-11-04T06:54:02.984Z,66.69
2023-11-04T06:56:39.480Z,66.59
2023-11-04T06:59:18.667Z,66.54
2023-11-04T07:01:57.873Z,66.34
2023-11-04T07:04:35.872Z,66.10
2023-11-04T07:07:12.321Z,65.96
2023-11-04T07:09:50.412Z,65.81
2023-11-04T07:12:27.304Z,65.93
2023-11-04T07:15:05.247Z,65.75
2023-11-04T07:17:41.674Z,65.67
2023-11-04T07:20:19.190Z,64.98
2023-11-04T07:22:55.545Z,64.69
2023-11-04T07:25:32.306Z,64.37
2023-11-04T07:28:09.640Z,64.00
2023-11-04T07:30:46.241Z,63.58
2023-11-04T07:33:23.073Z,63.08
2023-11-04T07:35:59.874Z,62.54
2023-11-04T07:38:36.929Z,62.26
2023-11-04T07:41:13.880Z,61.53
2023-11-04T07:43:50.638Z,61.05
2023-11-04T07:46:28.229Z,60.87
2023-11-04T07:49:05.109Z,60.48
2023-11-04T07:51:42.300Z,60.27
2023-11-04T07:54:18.977Z,60.18
2023-11-04T07:56:55.303Z,59.75
2023-11-04T07:59:33.707Z,59.79
2023-11-04T08:02:10.838Z,59.55
2023-11-04T08:04:47.423Z,59.14
2023-11-04T08:07:24.164Z,58.74
2023-11-04T08:10:01.187Z,59.01
2023-11-04T08:12:39.137Z,59.16
2023-11-04T08:15:16.557Z,58.24
2023-11-04T08:17:53.067Z,58.00
2023-11-04T08:20:29.532Z,57.83
2023-11-04T08:23:07.377Z,57.42
2023-11-04T08:25:43.902Z,56.98
2023-11-04T08:28:20.375Z,56.97
2023-11-04T08:30:56.894Z,57.09
2023-11-04T08:33:34.170Z,56.86
2023-11-04T08:36:12.276Z,56.56
2023-11-04T08:38:48.789Z,56.35
2023-11-04T08:41:25.173Z,56.14
2023-11-04T08:44:01.553Z,56.64
2023-11-04T08:46:37.944Z,56.99
2023-11-04T08:49:14.524Z,56.35
2023-11-04T08:51:51.111Z,56.21
2023-11-04T08:54:27.538Z,56.49
2023-11-04T08:57:04.126Z,56.20
2023-11-04T08:59:41.908Z,56.79
2023-11-04T09:02:18.216Z,56.55
2023-11-04T09:05:01.817Z,56.04
2023-11-04T09:07:42.811Z,55.89
2023-11-04T09:10:20.832Z,55.66
2023-11-04T09:12:58.399Z,55.79
2023-11-04T09:15:34.995Z,55.70
2023-11-04T09:18:11.930Z,55.25
2023-11-04T09:20:48.660Z,55.82
2023-11-04T09:23:24.984Z,55.93
2023-11-04T09:26:02.564Z,55.53
2023-11-04T09:28:41.928Z,55.95
2023-11-04T09:31:18.679Z,56.42
2023-11-04T09:33:55.814Z,56.10
2023-11-04T09:36:32.439Z,55.79
2023-11-04T09:39:09.966Z,55.43
2023-11-04T09:41:47.182Z,55.01
2023-11-04T09:44:24.874Z,55.34
2023-11-04T09:47:01.887Z,55.58
2023-11-04T09:49:38.325Z,55.40
2023-11-04T09:52:16.434Z,55.21
2023-11-04T09:54:54.526Z,55.51
2023-11-04T09:57:31.641Z,55.16
2023-11-04T10:00:11.643Z,55.67
2023-11-04T10:02:50.897Z,55.99
2023-11-04T10:05:28.553Z,56.18
2023-11-04T10:08:05.484Z,55.89
2023-11-04T10:10:42.230Z,56.30
2023-11-04T10:13:18.882Z,56.49
2023-11-04T10:15:55.264Z,56.77
2023-11-04T10:18:34.272Z,55.99
2023-11-04T10:21:11.627Z,56.13
2023-11-04T10:23:48.331Z,56.54
2023-11-04T10:26:29.298Z,57.07
2023-11-04T10:29:06.462Z,56.57
2023-11-04T10:31:48.386Z,56.59
2023-11-04T10:34:32.491Z,56.80
2023-11-04T10:37:15.559Z,56.39
2023-11-04T10:39:57.786Z,56.33
2023-11-04T10:42:35.703Z,56.43
2023-11-04T10:45:26.169Z,56.62
2023-11-04T10:48:13.313Z,56.72
2023-11-04T10:51:00.432Z,56.87
2023-11-04T10:53:56.295Z,56.71
2023-11-04T10:56:44.989Z,56.85
2023-11-04T10:59:37.497Z,57.33
2023-11-04T11:02:16.738Z,56.57
2023-11-04T11:04:54.635Z,56.35
2023-11-04T11:07:31.238Z,55.85
2023-11-04T11:10:10.041Z,55.87
2023-11-04T11:12:55.192Z,55.67
2023-11-04T11:15:33.617Z,55.44
2023-11-04T11:18:13.238Z,55.37
2023-11-04T11:20:49.729Z,55.18
2023-11-04T11:23:32.231Z,54.38
2023-11-04T11:26:14.629Z,53.99
2023-11-04T11:28:51.456Z,54.69
2023-11-04T11:31:33.483Z,54.30
2023-11-04T11:34:16.124Z,54.05
2023-11-04T11:36:55.099Z,54.40
2023-11-04T11:39:32.069Z,53.59
2023-11-04T11:42:09.791Z,53.34
2023-11-04T11:44:47.534Z,53.15
2023-11-04T11:47:26.894Z,53.14
2023-11-04T11:50:04.575Z,53.92
2023-11-04T11:52:45.081Z,53.92
2023-11-04T11:55:23.472Z,53.58
2023-11-04T11:57:59.924Z,53.73
2023-11-04T12:00:37.049Z,53.77
2023-11-04T12:03:13.879Z,53.54
2023-11-04T12:05:51.815Z,53.56
2023-11-04T12:08:28.531Z,53.86
2023-11-04T12:11:05.257Z,54.39
2023-11-04T12:13:41.797Z,54.51
2023-11-04T12:16:18.294Z,54.47
2023-11-04T12:18:56.011Z,54.12
2023-11-04T12:21:33.998Z,53.92
2023-11-04T12:24:12.602Z,54.10
2023-11-04T12:26:49.195Z,54.40
2023-11-04T12:29:29.615Z,54.43
2023-11-04T12:32:06.586Z,54.51
2023-11-04T12:34:53.272Z,53.94
2023-11-04T12:37:32.326Z,54.18
2023-11-04T12:40:12.953Z,54.63
2023-11-04T12:42:50.997Z,54.65
2023-11-04T12:45:30.269Z,54.18
2023-11-04T12:48:07.344Z,54.00
2023-11-04T12:50:43.878Z,53.77
2023-11-04T12:53:20.668Z,53.74
2023-11-04T12:55:57.241Z,53.51
2023-11-04T12:58:33.898Z,53.25
2023-11-04T13:01:11.474Z,53.13
2023-11-04T13:03:50.274Z,53.32
2023-11-04T13:06:26.636Z,52.95
2023-11-04T13:09:03.237Z,53.02
2023-11-04T13:11:40.117Z,53.36
2023-11-04T13:14:16.891Z,53.25
2023-11-04T13:16:54.862Z,53.68
2023-11-04T13:19:31.612Z,53.93
2023-11-04T13:22:08.283Z,53.69
2023-11-04T13:24:44.685Z,53.91
2023-11-04T13:27:22.027Z,54.19
2023-11-04T13:29:58.845Z,53.99
2023-11-04T13:32:36.942Z,54.00
2023-11-04T13:35:18.802Z,54.04
2023-11-04T13:37:56.653Z,54.50
2023-11-04T13:40:33.054Z,54.89
2023-11-04T13:43:09.712Z,54.97
2023-11-04T13:45:46.217Z,55.30
2023-11-04T13:48:23.113Z,55.46
2023-11-04T13:50:59.847Z,55.94
2023-11-04T13:53:36.165Z,56.21
2023-11-04T13:56:13.804Z,56.23
2023-11-04T13:58:50.796Z,56.43
2023-11-04T14:01:27.253Z,56.71
2023-11-04T14:04:04.278Z,56.73
2023-11-04T14:06:41.450Z,56.86
2023-11-04T14:09:18.415Z,56.97
2023-11-04T14:11:57.636Z,57.44
2023-11-04T14:14:34.816Z,57.79
2023-11-04T14:17:11.548Z,57.95
2023-11-04T14:19:48.045Z,58.43
2023-11-04T14:22:26.032Z,58.51
2023-11-04T14:25:02.504Z,58.84
2023-11-04T14:27:39.200Z,59.17
2023-11-04T14:30:17.366Z,59.48
2023-11-04T14:32:53.835Z,59.94
2023-11-04T14:35:30.533Z,60.30
2023-11-04T14:38:07.130Z,60.62
2023-11-04T14:40:43.759Z,61.00
2023-11-04T14:43:22.616Z,61.42
2023-11-04T14:46:00.218Z,62.03
2023-11-04T14:48:36.922Z,62.34
2023-11-04T14:51:13.445Z,62.70
2023-11-04T14:53:50.104Z,62.94
2023-11-04T14:56:26.764Z,63.14
2023-11-04T14:59:04.373Z,63.37
2023-11-04T15:01:50.062Z,63.62
2023-11-04T15:04:26.516Z,63.82
2023-11-04T15:07:03.229Z,64.04
2023-11-04T15:09:41.328Z,64.37
2023-11-04T15:12:22.162Z,64.98
2023-11-04T15:14:59.041Z,65.60
2023-11-04T15:17:36.104Z,65.52
2023-11-04T15:20:19.257Z,65.87
2023-11-04T15:22:55.893Z,66.27
2023-11-04T15:25:32.620Z,66.68
2023-11-04T15:28:11.077Z,67.23
2023-11-04T15:30:47.728Z,67.73
2023-11-04T15:33:28.043Z,68.05
2023-11-04T15:36:08.073Z,68.27
2023-11-04T15:38:45.491Z,68.36
2023-11-04T15:41:22.634Z,68.54
2023-11-04T15:43:59.028Z,68.75
2023-11-04T15:46:35.495Z,68.94
2023-11-04T15:49:12.060Z,69.19
2023-11-04T15:51:48.644Z,69.21
2023-11-04T15:54:25.168Z,69.22
2023-11-04T15:57:02.037Z,69.47
2023-11-04T15:59:39.430Z,69.96
2023-11-04T16:02:15.875Z,70.23
2023-11-04T16:04:52.407Z,70.46
2023-11-04T16:07:29.013Z,70.72
2023-11-04T16:10:06.654Z,71.06
2023-11-04T16:12:44.511Z,71.36
2023-11-04T16:15:21.432Z,71.46
2023-11-04T16:17:58.354Z,71.58
2023-11-04T16:20:35.700Z,71.60
2023-11-04T16:23:12.200Z,71.55
2023-11-04T16:25:48.884Z,71.67
2023-11-04T16:28:25.575Z,71.79
2023-11-04T16:31:04.620Z,71.82
2023-11-04T16:33:41.689Z,72.22
2023-11-04T16:36:20.527Z,72.71
2023-11-04T16:38:57.692Z,72.90
2023-11-04T16:41:34.466Z,72.95
2023-11-04T16:44:11.731Z,73.08
2023-11-04T16:46:48.226Z,73.42
2023-11-04T16:49:24.710Z,73.69
2023-11-04T16:52:01.403Z,73.77
2023-11-04T16:54:38.565Z,73.88
2023-11-04T16:57:15.446Z,74.08
2023-11-04T16:59:52.196Z,74.29
2023-11-04T17:02:31.568Z,74.46
2023-11-04T17:05:10.770Z,74.50
2023-11-04T17:07:47.103Z,74.48
2023-11-04T17:10:24.441Z,74.60
2023-11-04T17:13:02.500Z,74.78
2023-11-04T17:15:44.275Z,75.00
2023-11-04T17:18:23.499Z,75.15
2023-11-04T17:21:00.069Z,75.32
2023-11-04T17:23:36.503Z,75.52
2023-11-04T17:26:13.260Z,75.62
2023-11-04T17:28:50.498Z,75.71
2023-11-04T17:31:26.778Z,75.78
2023-11-04T17:34:03.447Z,75.80
2023-11-04T17:36:41.098Z,75.97
2023-11-04T17:39:17.743Z,76.12
2023-11-04T17:41:54.562Z,76.24
2023-11-04T17:44:31.232Z,76.40
2023-11-04T17:47:08.136Z,76.67
2023-11-04T17:49:45.584Z,76.93
2023-11-04T17:52:22.018Z,77.07
2023-11-04T17:54:58.626Z,77.19
2023-11-04T17:57:35.130Z,77.15
2023-11-04T18:00:15.658Z,78.02
2023-11-04T18:02:52.288Z,79.08
2023-11-04T18:05:29.168Z,78.82
2023-11-04T18:08:08.154Z,79.54
2023-11-04T18:10:46.408Z,79.60
2023-11-04T18:13:24.838Z,79.45
2023-11-04T18:16:01.440Z,79.26
2023-11-04T18:18:40.345Z,78.77
2023-11-04T18:21:16.849Z,78.28
2023-11-04T18:23:53.353Z,78.14
2023-11-04T18:26:32.478Z,78.02
2023-11-04T18:29:13.780Z,78.18
2023-11-04T18:31:51.829Z,78.22
2023-11-04T18:34:30.333Z,78.20
2023-11-04T18:37:09.477Z,78.35
2023-11-04T18:39:47.945Z,78.43
2023-11-04T18:42:26.490Z,78.36
2023-11-04T18:45:05.994Z,78.58
2023-11-04T18:47:43.963Z,78.65
2023-11-04T18:50:20.952Z,78.80
2023-11-04T18:53:00.399Z,79.07
2023-11-04T18:55:37.952Z,79.06
2023-11-04T18:58:16.780Z,79.30
2023-11-04T19:00:53.668Z,79.47
2023-11-04T19:03:30.148Z,79.61
2023-11-04T19:06:08.076Z,79.61
2023-11-04T19:08:44.761Z,79.70
2023-11-04T19:11:22.321Z,80.28
2023-11-04T19:13:58.813Z,80.34
2023-11-04T19:16:35.157Z,80.58
2023-11-04T19:19:11.885Z,80.54
2023-11-04T19:21:48.941Z,80.93
2023-11-04T19:24:28.159Z,80.99
2023-11-04T19:27:06.540Z,80.76
2023-11-04T19:29:43.111Z,80.80
2023-11-04T19:32:19.809Z,80.87
2023-11-04T19:34:57.022Z,80.81
2023-11-04T19:37:35.287Z,80.73
2023-11-04T19:40:16.433Z,80.79
2023-11-04T19:42:56.075Z,80.88
2023-11-04T19:45:34.702Z,80.95
2023-11-04T19:48:12.699Z,81.13
2023-11-04T19:50:49.331Z,81.21
2023-11-04T19:53:27.488Z,81.19
2023-11-04T19:56:04.357Z,81.33
2023-11-04T19:58:42.471Z,81.49
2023-11-04T20:01:19.802Z,81.49
2023-11-04T20:03:56.613Z,81.59
2023-11-04T20:06:33.250Z,81.55
2023-11-04T20:09:09.927Z,81.56
2023-11-04T20:11:49.935Z,81.43
2023-11-04T20:14:26.579Z,81.52
2023-11-04T20:17:03.513Z,81.46
2023-11-04T20:19:40.294Z,81.40
2023-11-04T20:22:17.537Z,81.50
2023-11-04T20:24:56.114Z,81.50
2023-11-04T20:27:35.643Z,81.58
2023-11-04T20:30:15.817Z,81.74
2023-11-04T20:32:52.905Z,81.95
2023-11-04T20:35:32.514Z,81.92
2023-11-04T20:38:10.554Z,81.97
2023-11-04T20:40:48.067Z,82.05
2023-11-04T20:43:25.103Z,82.01
2023-11-04T20:46:04.344Z,82.08
2023-11-04T20:48:41.214Z,82.08
2023-11-04T20:51:18.901Z,82.07
2023-11-04T20:53:55.317Z,82.17
2023-11-04T20:56:31.799Z,82.14
2023-11-04T20:59:08.955Z,82.19
2023-11-04T21:01:47.430Z,82.20
2023-11-04T21:04:23.978Z,82.17
2023-11-04T21:07:00.849Z,82.16
2023-11-04T21:09:39.573Z,82.06
2023-11-04T21:12:18.050Z,82.01
2023-11-04T21:14:54.892Z,81.99
2023-11-04T21:17:32.079Z,82.10
2023-11-04T21:20:10.878Z,82.35
2023-11-04T21:22:47.502Z,82.35
2023-11-04T21:25:24.678Z,82.42
2023-11-04T21:28:02.934Z,82.35
2023-11-04T21:30:39.514Z,82.55
2023-11-04T21:33:18.319Z,82.57
2023-11-04T21:35:55.321Z,82.57
2023-11-04T21:38:31.896Z,82.63
2023-11-04T21:41:09.135Z,82.62
2023-11-04T21:43:45.834Z,82.66
2023-11-04T21:46:22.622Z,82.66
2023-11-04T21:48:59.382Z,82.84
2023-11-04T21:51:35.999Z,82.90
2023-11-04T21:54:12.517Z,83.05
2023-11-04T21:56:49.114Z,83.20
2023-11-04T21:59:26.229Z,83.10
2023-11-04T22:02:03.031Z,83.12
2023-11-04T22:04:39.729Z,83.06
2023-11-04T22:07:16.636Z,82.89
2023-11-04T22:09:54.262Z,82.83
2023-11-04T22:12:30.683Z,82.78
2023-11-04T22:15:09.008Z,82.71
2023-11-04T22:17:45.492Z,82.70
2023-11-04T22:20:22.231Z,82.78
2023-11-04T22:22:58.560Z,82.93
2023-11-04T22:25:35.418Z,83.02
2023-11-04T22:28:12.216Z,83.06
2023-11-04T22:30:48.941Z,83.11
2023-11-04T22:33:25.242Z,83.23
2023-11-04T22:36:01.904Z,83.23
2023-11-04T22:38:38.653Z,83.20
2023-11-04T22:41:14.991Z,83.11
2023-11-04T22:43:51.485Z,83.19
2023-11-04T22:46:27.937Z,83.20
2023-11-04T22:49:06.711Z,83.29
2023-11-04T22:51:43.519Z,83.30
2023-11-04T22:54:20.808Z,83.32
2023-11-04T22:56:57.290Z,83.51
2023-11-04T22:59:33.632Z,83.86
2023-11-04T23:02:10.629Z,83.99
2023-11-04T23:04:47.123Z,84.10
2023-11-04T23:07:23.790Z,84.06
2023-11-04T23:10:00.285Z,83.99
2023-11-04T23:12:36.947Z,83.90
2023-11-04T23:15:15.645Z,83.90
2023-11-04T23:17:52.096Z,83.90
2023-11-04T23:20:28.558Z,83.91
2023-11-04T23:23:04.938Z,83.89
2023-11-04T23:25:41.511Z,83.91
2023-11-04T23:28:18.242Z,83.88
2023-11-04T23:30:54.718Z,83.88
2023-11-04T23:33:32.683Z,83.83
2023-11-04T23:36:10.862Z,83.80
2023-11-04T23:38:47.438Z,83.82
2023-11-04T23:41:23.807Z,83.86
2023-11-04T23:44:00.373Z,83.86
2023-11-04T23:46:37.147Z,83.93
2023-11-04T23:49:13.694Z,84.14
2023-11-04T23:51:50.293Z,84.20
2023-11-04T23:54:28.910Z,84.12
2023-11-04T23:57:05.472Z,83.98
2023-11-04T23:59:42.722Z,83.90
